Time;durP1;ratioP1;P1;durP2;ratioP2;P2;SDS_P1;SDS_P2;PMS_P1;PMS_P2;Temp;Humidity;BMP_temperature;BMP_pressure;BME280_temperature;BME280_humidity;BME280_pressure;Samples;Min_cycle;Max_cycle;Signal;HPM_P1;HPM_P2
2022/07/07 00:00:25;;;;;;;2.00;0.70;;;16.60;98.70;;;;;;5046653;28;20616;-71
2022/07/07 00:02:52;;;;;;;0.73;0.73;;;16.70;98.80;;;;;;5047343;28;20212;-71
2022/07/07 00:05:18;;;;;;;1.17;0.70;;;16.70;98.50;;;;;;5047067;28;20239;-71
2022/07/07 00:07:45;;;;;;;0.80;0.53;;;16.60;98.60;;;;;;5047429;28;20211;-71
2022/07/07 00:10:12;;;;;;;2.70;0.90;;;16.60;98.60;;;;;;5038768;28;20211;-71
2022/07/07 00:12:39;;;;;;;2.30;0.60;;;16.60;98.70;;;;;;5027296;28;20231;-73
2022/07/07 00:15:09;;;;;;;1.53;0.70;;;16.60;98.50;;;;;;5027441;28;20217;-72
2022/07/07 00:17:36;;;;;;;1.20;0.90;;;16.70;98.70;;;;;;5027323;28;20215;-72
2022/07/07 00:20:03;;;;;;;1.30;0.73;;;16.70;98.70;;;;;;5026907;28;20683;-72
2022/07/07 00:22:30;;;;;;;0.87;0.60;;;16.70;98.50;;;;;;5027153;28;20209;-71
2022/07/07 00:24:57;;;;;;;3.10;0.80;;;16.70;98.50;;;;;;5027231;28;20580;-72
2022/07/07 00:27:23;;;;;;;1.13;0.90;;;16.70;98.40;;;;;;5033979;28;20212;-70
2022/07/07 00:29:50;;;;;;;1.90;0.70;;;16.70;98.50;;;;;;5031646;28;20203;-70
2022/07/07 00:32:18;;;;;;;1.03;0.57;;;16.60;98.50;;;;;;5037343;28;20236;-70
2022/07/07 00:34:45;;;;;;;1.27;0.70;;;16.60;98.60;;;;;;5038408;28;20203;-70
2022/07/07 00:37:12;;;;;;;0.70;0.70;;;16.60;98.70;;;;;;5046833;28;20208;-70
2022/07/07 00:39:38;;;;;;;1.10;0.80;;;16.60;98.60;;;;;;5046960;28;20218;-70
2022/07/07 00:42:06;;;;;;;0.87;0.57;;;16.60;98.50;;;;;;5046261;28;20580;-70
2022/07/07 00:44:32;;;;;;;2.57;0.80;;;16.60;98.60;;;;;;5047138;28;20210;-70
2022/07/07 00:47:00;;;;;;;2.10;0.70;;;16.60;98.50;;;;;;5051164;28;20216;-70
2022/07/07 00:49:28;;;;;;;3.27;0.90;;;16.60;98.70;;;;;;5045684;28;20292;-71
2022/07/07 00:51:55;;;;;;;1.60;0.60;;;16.50;98.70;;;;;;5031099;28;20232;-70
2022/07/07 00:54:22;;;;;;;1.13;0.80;;;16.60;98.80;;;;;;5031056;28;20209;-71
2022/07/07 00:56:49;;;;;;;3.97;0.63;;;16.50;98.90;;;;;;5034894;28;20200;-71
2022/07/07 00:59:16;;;;;;;1.23;0.80;;;16.50;99.00;;;;;;5050861;28;20295;-70
2022/07/07 01:01:44;;;;;;;0.87;0.70;;;16.50;99.10;;;;;;5050940;28;20212;-70
2022/07/07 01:04:13;;;;;;;2.97;0.70;;;16.50;99.60;;;;;;5050635;28;20231;-71
2022/07/07 01:06:41;;;;;;;1.80;0.90;;;16.40;99.90;;;;;;5050465;28;20216;-71
2022/07/07 01:09:09;;;;;;;0.93;0.90;;;16.30;99.90;;;;;;5050426;28;20245;-71
2022/07/07 01:11:51;;;;;;;1.60;0.80;;;16.20;99.90;;;;;;5048928;28;21096;-70
2022/07/07 01:14:18;;;;;;;1.20;0.83;;;16.20;99.90;;;;;;5050488;28;20223;-71
2022/07/07 01:16:46;;;;;;;1.90;0.77;;;16.20;99.90;;;;;;5050216;28;20219;-71
2022/07/07 01:19:12;;;;;;;1.90;1.17;;;16.00;99.90;;;;;;5050221;28;20204;-70
2022/07/07 01:21:49;;;;;;;3.30;0.97;;;16.00;99.90;;;;;;5049544;28;20223;-71
2022/07/07 01:24:17;;;;;;;1.00;0.70;;;16.00;99.90;;;;;;5030223;28;20219;-70
2022/07/07 01:26:44;;;;;;;2.00;0.93;;;15.90;99.90;;;;;;5032450;28;20781;-70
2022/07/07 01:29:11;;;;;;;1.90;0.73;;;15.90;99.90;;;;;;5050200;28;20220;-70
2022/07/07 01:31:38;;;;;;;3.77;1.00;;;16.00;99.90;;;;;;5047414;28;20250;-71
2022/07/07 01:34:05;;;;;;;2.13;0.87;;;16.00;99.90;;;;;;5029925;28;20209;-71
2022/07/07 01:36:31;;;;;;;2.63;1.07;;;15.90;99.90;;;;;;5032382;28;20209;-71
2022/07/07 01:38:58;;;;;;;3.97;1.40;;;15.90;99.90;;;;;;5050005;28;20215;-71
2022/07/07 01:41:26;;;;;;;1.83;0.93;;;15.80;99.90;;;;;;5049771;28;20215;-71
2022/07/07 01:43:53;;;;;;;1.13;0.90;;;15.60;99.90;;;;;;5039160;28;20219;-71
2022/07/07 01:46:20;;;;;;;2.90;0.90;;;15.50;99.90;;;;;;5049718;28;20240;-71
2022/07/07 01:48:47;;;;;;;3.33;1.20;;;15.50;99.90;;;;;;5049719;28;20675;-71
2022/07/07 01:51:13;;;;;;;1.80;1.27;;;15.60;99.90;;;;;;5049249;28;20286;-70
2022/07/07 01:53:40;;;;;;;3.83;1.20;;;15.60;99.90;;;;;;5039542;28;20285;-70
2022/07/07 01:56:08;;;;;;;4.50;1.07;;;15.60;99.90;;;;;;5037134;28;20205;-70
2022/07/07 01:58:36;;;;;;;2.10;1.20;;;15.60;99.90;;;;;;5029497;28;20205;-70
2022/07/07 02:01:05;;;;;;;1.67;1.00;;;15.60;99.90;;;;;;5029856;28;20205;-70
2022/07/07 02:03:33;;;;;;;1.50;1.00;;;15.60;99.90;;;;;;5046516;28;20228;-69
2022/07/07 02:05:59;;;;;;;2.40;0.97;;;15.60;99.90;;;;;;5049504;28;20215;-69
2022/07/07 02:08:26;;;;;;;2.63;1.27;;;15.50;99.90;;;;;;5049105;28;20573;-70
2022/07/07 02:13:38;;;;;;;2.00;1.10;;;15.30;99.90;;;;;;5038443;28;20254;-73
2022/07/07 02:16:08;;;;;;;1.60;1.20;;;15.10;99.90;;;;;;5049168;28;20220;-72
2022/07/07 02:18:36;;;;;;;1.03;1.00;;;15.10;99.90;;;;;;5044163;28;20232;-73
2022/07/07 02:21:06;;;;;;;3.23;1.13;;;15.10;99.90;;;;;;5028831;28;20213;-72
2022/07/07 02:23:34;;;;;;;1.63;1.00;;;15.30;99.90;;;;;;5028900;28;20201;-73
2022/07/07 02:26:01;;;;;;;1.90;1.10;;;15.20;99.90;;;;;;5029572;28;20232;-72
2022/07/07 02:28:28;;;;;;;2.93;1.57;;;15.00;99.90;;;;;;5029524;28;20215;-72
2022/07/07 02:30:57;;;;;;;3.00;1.00;;;15.00;99.90;;;;;;5046871;28;20545;-72
2022/07/07 02:33:25;;;;;;;1.40;1.30;;;15.00;99.90;;;;;;5048228;28;20726;-72
2022/07/07 02:35:52;;;;;;;1.77;1.33;;;14.90;99.90;;;;;;5048534;28;20215;-72
2022/07/07 02:38:20;;;;;;;4.30;1.20;;;14.80;99.90;;;;;;5049247;28;20212;-73
2022/07/07 02:40:47;;;;;;;1.03;0.93;;;14.80;99.90;;;;;;5049150;28;20211;-72
2022/07/07 02:43:14;;;;;;;1.30;1.20;;;14.90;99.90;;;;;;5039108;28;20216;-73
2022/07/07 02:45:41;;;;;;;1.83;1.50;;;14.90;99.90;;;;;;5030128;28;20208;-72
2022/07/07 02:48:10;;;;;;;1.37;1.27;;;14.80;99.90;;;;;;5028691;28;20667;-71
2022/07/07 02:50:37;;;;;;;3.30;1.47;;;14.80;99.90;;;;;;5047641;28;20204;-71
2022/07/07 02:53:04;;;;;;;2.80;1.30;;;14.80;99.90;;;;;;5047920;28;20315;-71
2022/07/07 02:55:32;;;;;;;2.40;1.77;;;14.80;99.90;;;;;;5048480;28;20692;-70
2022/07/07 02:57:59;;;;;;;1.80;1.20;;;14.90;99.90;;;;;;5048404;28;20655;-70
2022/07/07 03:00:26;;;;;;;6.83;1.80;;;15.10;99.90;;;;;;5048267;28;20569;-72
2022/07/07 03:02:53;;;;;;;1.50;1.40;;;15.10;99.90;;;;;;5034887;28;20204;-72
2022/07/07 03:05:21;;;;;;;2.10;1.47;;;15.20;99.90;;;;;;5028120;28;20697;-72
2022/07/07 03:07:48;;;;;;;6.27;1.70;;;15.20;99.90;;;;;;5029250;28;20667;-71
2022/07/07 03:10:16;;;;;;;2.57;1.70;;;15.30;99.90;;;;;;5028147;28;20664;-71
2022/07/07 03:12:43;;;;;;;2.77;1.20;;;15.40;99.90;;;;;;5028249;28;20224;-71
2022/07/07 03:15:10;;;;;;;2.67;1.50;;;15.30;99.90;;;;;;5040935;28;20214;-71
2022/07/07 03:17:41;;;;;;;1.80;1.20;;;15.30;99.90;;;;;;5031874;28;20562;-71
2022/07/07 03:20:09;;;;;;;2.20;1.40;;;15.10;99.90;;;;;;5028466;28;20559;-71
2022/07/07 03:22:38;;;;;;;2.73;1.60;;;15.00;99.90;;;;;;5027807;28;20691;-71
2022/07/07 03:25:06;;;;;;;2.20;1.50;;;14.90;99.90;;;;;;5028124;28;20738;-71
2022/07/07 03:27:33;;;;;;;1.47;1.37;;;14.80;99.90;;;;;;5030989;28;20201;-71
2022/07/07 03:30:00;;;;;;;1.43;1.30;;;14.70;99.90;;;;;;5037802;28;20655;-71
2022/07/07 03:32:27;;;;;;;3.87;1.50;;;14.70;99.90;;;;;;5047893;28;20231;-71
2022/07/07 03:34:54;;;;;;;1.60;1.50;;;14.70;99.90;;;;;;5035240;28;20791;-71
2022/07/07 03:37:21;;;;;;;2.60;1.60;;;14.80;99.90;;;;;;5037272;28;20255;-70
2022/07/07 03:39:49;;;;;;;2.93;1.57;;;14.90;99.90;;;;;;5045469;28;20211;-70
2022/07/07 03:42:16;;;;;;;1.60;1.50;;;15.00;99.90;;;;;;5031357;28;20201;-71
2022/07/07 03:44:43;;;;;;;3.90;1.67;;;15.00;99.90;;;;;;5043744;28;20216;-71
2022/07/07 03:47:11;;;;;;;3.40;1.70;;;15.00;99.90;;;;;;5047906;28;20227;-71
2022/07/07 03:49:38;;;;;;;2.40;1.30;;;15.10;99.90;;;;;;5045869;28;20207;-71
2022/07/07 03:52:05;;;;;;;2.13;1.60;;;15.00;99.90;;;;;;5047437;28;20211;-71
2022/07/07 03:54:32;;;;;;;1.90;1.80;;;15.00;99.90;;;;;;5047535;28;20208;-72
2022/07/07 03:57:00;;;;;;;3.67;1.83;;;15.00;99.90;;;;;;5047699;28;20207;-71
2022/07/07 03:59:27;;;;;;;1.67;1.57;;;15.10;99.90;;;;;;5040497;28;20200;-72
2022/07/07 04:01:54;;;;;;;4.13;1.80;;;15.10;99.90;;;;;;5027949;28;20211;-70
2022/07/07 04:04:21;;;;;;;4.33;2.10;;;15.10;99.90;;;;;;5027199;28;20726;-70
2022/07/07 04:06:47;;;;;;;1.93;1.73;;;14.90;99.90;;;;;;5027662;28;20215;-70
2022/07/07 04:09:14;;;;;;;3.47;2.23;;;14.90;99.90;;;;;;5031206;28;20196;-69
2022/07/07 04:11:41;;;;;;;1.80;1.70;;;15.00;99.90;;;;;;5044612;28;20205;-70
2022/07/07 04:14:09;;;;;;;1.90;1.80;;;15.10;99.90;;;;;;5038323;28;20335;-70
2022/07/07 04:16:36;;;;;;;1.47;1.37;;;15.10;99.90;;;;;;5047114;28;20219;-70
2022/07/07 04:19:02;;;;;;;3.83;1.70;;;15.00;99.90;;;;;;5046076;28;20914;-70
2022/07/07 04:21:29;;;;;;;2.00;1.90;;;15.00;99.90;;;;;;5030833;28;20209;-70
2022/07/07 04:23:56;;;;;;;1.60;1.50;;;14.90;99.90;;;;;;5031789;28;20220;-71
2022/07/07 04:26:23;;;;;;;3.53;1.90;;;15.00;99.90;;;;;;5031533;28;20216;-71
2022/07/07 04:28:49;;;;;;;1.77;1.57;;;14.90;99.90;;;;;;5049781;28;20219;-71
2022/07/07 04:31:18;;;;;;;2.00;1.80;;;15.00;99.90;;;;;;5050393;28;20236;-71
2022/07/07 04:33:44;;;;;;;3.37;2.03;;;15.00;99.90;;;;;;5051304;28;20231;-71
2022/07/07 04:36:13;;;;;;;3.10;2.23;;;15.00;99.90;;;;;;5050655;28;20215;-71
2022/07/07 04:38:40;;;;;;;1.80;1.70;;;14.90;99.90;;;;;;5031204;28;20254;-71
2022/07/07 04:41:07;;;;;;;2.30;2.00;;;14.90;99.90;;;;;;5032013;28;20209;-71
2022/07/07 04:43:34;;;;;;;2.77;2.30;;;14.80;99.90;;;;;;5051129;28;20211;-71
2022/07/07 04:46:00;;;;;;;2.10;2.00;;;14.80;99.90;;;;;;5051072;28;20204;-71
2022/07/07 04:48:31;;;;;;;3.10;2.10;;;14.80;99.90;;;;;;5050704;28;20203;-71
2022/07/07 04:50:58;;;;;;;2.23;1.97;;;14.90;99.90;;;;;;5034902;28;20291;-71
2022/07/07 04:53:24;;;;;;;1.93;1.80;;;15.00;99.90;;;;;;5050037;28;21004;-70
2022/07/07 04:55:51;;;;;;;2.10;1.90;;;15.10;99.90;;;;;;5051055;28;20207;-70
2022/07/07 04:58:18;;;;;;;3.63;1.97;;;15.00;99.90;;;;;;5050257;28;20219;-70
2022/07/07 05:00:45;;;;;;;1.90;1.80;;;15.10;99.90;;;;;;5034783;28;20207;-70
2022/07/07 05:03:11;;;;;;;2.43;2.00;;;15.10;99.90;;;;;;5030836;28;20229;-70
2022/07/07 05:05:39;;;;;;;2.30;2.10;;;14.90;99.90;;;;;;5030741;28;20211;-72
2022/07/07 05:08:06;;;;;;;2.47;2.27;;;14.70;99.90;;;;;;5038513;28;20215;-73
2022/07/07 05:10:33;;;;;;;2.57;2.37;;;14.70;99.90;;;;;;5049766;28;20208;-71
2022/07/07 05:13:00;;;;;;;2.80;2.60;;;14.70;99.90;;;;;;5050172;28;20224;-71
2022/07/07 05:15:27;;;;;;;2.83;2.50;;;14.70;99.90;;;;;;5050353;28;20755;-70
2022/07/07 05:17:53;;;;;;;3.33;2.57;;;14.50;99.90;;;;;;5050172;28;20717;-70
2022/07/07 05:20:20;;;;;;;3.27;2.40;;;14.40;99.90;;;;;;5038985;28;20205;-70
2022/07/07 05:22:48;;;;;;;3.53;2.50;;;14.40;99.90;;;;;;5030257;28;20224;-70
2022/07/07 05:25:15;;;;;;;2.50;2.30;;;14.40;99.90;;;;;;5030137;28;20205;-70
2022/07/07 05:27:44;;;;;;;2.80;2.60;;;14.40;99.90;;;;;;5030571;28;20208;-71
2022/07/07 05:30:12;;;;;;;2.53;2.33;;;14.30;99.90;;;;;;5040629;28;20733;-71
2022/07/07 05:32:38;;;;;;;4.63;2.73;;;14.30;99.90;;;;;;5033351;28;20207;-71
2022/07/07 05:35:06;;;;;;;4.30;2.83;;;14.30;99.90;;;;;;5030214;28;20220;-71
2022/07/07 05:37:33;;;;;;;3.33;2.50;;;14.30;99.90;;;;;;5032256;28;20209;-71
2022/07/07 05:40:01;;;;;;;3.07;2.47;;;14.30;99.90;;;;;;5048351;28;20204;-71
2022/07/07 05:42:28;;;;;;;2.80;2.60;;;14.30;99.90;;;;;;5049770;28;20819;-71
2022/07/07 05:44:54;;;;;;;4.07;2.70;;;14.20;99.90;;;;;;5033117;28;20209;-71
2022/07/07 05:47:21;;;;;;;3.07;2.70;;;14.10;99.90;;;;;;5030365;28;20213;-71
2022/07/07 05:49:48;;;;;;;3.63;3.33;;;14.00;99.90;;;;;;5031249;28;20216;-71
2022/07/07 05:52:15;;;;;;;3.77;3.47;;;14.00;99.90;;;;;;5030330;28;20209;-73
2022/07/07 05:54:41;;;;;;;5.17;3.70;;;14.10;99.90;;;;;;5030216;28;20237;-73
2022/07/07 05:57:10;;;;;;;3.67;3.40;;;14.10;99.90;;;;;;5047873;28;20211;-72
2022/07/07 05:59:37;;;;;;;3.80;3.27;;;14.20;99.90;;;;;;5039114;28;20209;-72
2022/07/07 06:02:04;;;;;;;3.60;3.40;;;14.20;99.90;;;;;;5030991;28;20205;-73
2022/07/07 06:04:30;;;;;;;3.07;2.90;;;14.20;99.90;;;;;;5043250;28;20229;-73
2022/07/07 06:06:57;;;;;;;3.43;2.97;;;14.20;99.90;;;;;;5029770;28;20204;-73
2022/07/07 06:09:24;;;;;;;3.30;3.10;;;14.10;99.90;;;;;;5029663;28;20209;-71
2022/07/07 06:11:51;;;;;;;4.80;3.63;;;14.10;99.90;;;;;;5029589;28;20209;-71
2022/07/07 06:14:19;;;;;;;4.10;3.13;;;14.10;99.90;;;;;;5049562;28;20231;-71
2022/07/07 06:16:45;;;;;;;3.53;3.17;;;14.10;99.90;;;;;;5034301;28;20209;-71
2022/07/07 06:19:13;;;;;;;3.10;2.90;;;14.20;99.90;;;;;;5030873;28;20212;-71
2022/07/07 06:21:41;;;;;;;2.90;2.70;;;14.30;99.90;;;;;;5048801;28;20681;-71
2022/07/07 06:24:09;;;;;;;3.20;2.90;;;14.20;99.90;;;;;;5047741;28;20249;-71
2022/07/07 06:26:36;;;;;;;3.07;2.90;;;14.20;99.90;;;;;;5049244;28;20208;-73
2022/07/07 06:29:04;;;;;;;2.80;2.70;;;14.20;99.90;;;;;;5048828;28;20258;-73
2022/07/07 06:31:32;;;;;;;2.70;2.50;;;14.20;99.90;;;;;;5048890;28;20236;-74
2022/07/07 06:33:59;;;;;;;2.50;2.30;;;14.20;99.90;;;;;;5034516;28;20237;-74
2022/07/07 06:36:28;;;;;;;2.20;2.10;;;14.30;99.90;;;;;;5031636;28;20208;-73
2022/07/07 06:38:55;;;;;;;2.30;2.20;;;14.30;99.90;;;;;;5044130;28;20589;-74
2022/07/07 06:41:23;;;;;;;2.20;2.00;;;14.40;99.90;;;;;;5047877;28;20773;-74
2022/07/07 06:43:50;;;;;;;1.93;1.80;;;14.50;99.90;;;;;;5048290;28;20219;-74
2022/07/07 06:46:17;;;;;;;2.00;1.90;;;14.50;99.90;;;;;;5047269;28;20311;-72
2022/07/07 06:48:45;;;;;;;1.90;1.90;;;14.50;99.90;;;;;;5033939;28;20210;-71
2022/07/07 06:51:12;;;;;;;1.90;1.80;;;14.50;99.90;;;;;;5042781;28;20201;-73
2022/07/07 06:53:39;;;;;;;2.00;1.90;;;14.50;99.90;;;;;;5029924;28;20220;-72
2022/07/07 06:56:08;;;;;;;1.63;1.53;;;14.50;99.90;;;;;;5028794;28;20201;-72
2022/07/07 06:58:35;;;;;;;3.20;1.50;;;14.50;99.90;;;;;;5031402;28;20208;-72
2022/07/07 07:01:02;;;;;;;1.50;1.40;;;14.50;99.90;;;;;;5040525;28;20209;-72
2022/07/07 07:03:29;;;;;;;1.20;1.20;;;14.50;99.90;;;;;;5029728;28;20328;-72
2022/07/07 07:05:57;;;;;;;1.63;1.53;;;14.60;99.90;;;;;;5046007;28;20287;-73
2022/07/07 07:08:23;;;;;;;1.40;1.30;;;14.60;99.90;;;;;;5036847;28;20222;-72
2022/07/07 07:10:50;;;;;;;1.23;1.20;;;14.70;99.90;;;;;;5037823;28;20200;-72
2022/07/07 07:13:17;;;;;;;1.80;1.30;;;14.70;99.90;;;;;;5040433;28;20675;-71
2022/07/07 07:15:44;;;;;;;1.47;1.17;;;14.80;99.90;;;;;;5039090;28;20200;-74
2022/07/07 07:18:11;;;;;;;1.33;1.30;;;14.70;99.90;;;;;;5037447;28;20200;-71
2022/07/07 07:20:40;;;;;;;2.53;1.30;;;14.70;99.90;;;;;;5038760;28;20211;-71
2022/07/07 07:23:08;;;;;;;1.20;1.20;;;14.60;99.90;;;;;;5038946;28;20283;-71
2022/07/07 07:25:35;;;;;;;1.20;1.20;;;14.60;99.90;;;;;;5039561;28;20204;-71
2022/07/07 07:28:02;;;;;;;1.60;1.60;;;14.70;99.90;;;;;;5035190;28;20201;-71
2022/07/07 07:30:29;;;;;;;1.73;1.47;;;14.70;99.90;;;;;;5038586;28;20263;-71
2022/07/07 07:32:56;;;;;;;2.60;1.50;;;14.80;99.90;;;;;;5034462;28;20284;-71
2022/07/07 07:35:23;;;;;;;1.50;1.50;;;14.80;99.90;;;;;;5039793;28;20235;-71
2022/07/07 07:37:50;;;;;;;1.80;1.70;;;14.80;99.90;;;;;;5042992;28;20212;-71
2022/07/07 07:40:18;;;;;;;1.57;1.57;;;14.80;99.90;;;;;;5036728;28;20583;-71
2022/07/07 07:42:45;;;;;;;1.70;1.60;;;14.80;99.90;;;;;;5028656;28;20683;-71
2022/07/07 07:45:12;;;;;;;1.63;1.63;;;14.90;99.90;;;;;;5034004;28;20223;-71
2022/07/07 07:47:40;;;;;;;1.60;1.60;;;14.90;99.90;;;;;;5034593;28;20205;-71
2022/07/07 07:50:08;;;;;;;1.60;1.60;;;14.90;99.90;;;;;;5031192;28;20219;-71
2022/07/07 07:52:35;;;;;;;2.37;2.27;;;15.00;99.90;;;;;;5024924;28;20933;-71
2022/07/07 07:55:02;;;;;;;1.93;1.93;;;15.10;99.90;;;;;;5031065;28;20228;-71
2022/07/07 07:57:30;;;;;;;1.97;1.87;;;15.00;99.90;;;;;;5038233;28;20248;-71
2022/07/07 07:59:57;;;;;;;2.20;2.10;;;15.10;99.90;;;;;;5026894;28;20311;-71
2022/07/07 08:02:23;;;;;;;2.17;2.07;;;15.10;99.90;;;;;;5025559;28;20216;-71
2022/07/07 08:04:50;;;;;;;1.97;1.87;;;15.10;99.90;;;;;;5025080;28;20777;-71
2022/07/07 08:07:18;;;;;;;2.07;1.83;;;15.10;99.90;;;;;;5025011;28;20996;-71
2022/07/07 08:09:45;;;;;;;1.70;1.60;;;15.10;99.90;;;;;;5037827;28;20204;-71
2022/07/07 08:12:12;;;;;;;1.60;1.60;;;15.10;99.90;;;;;;5045111;28;20219;-71
2022/07/07 08:14:41;;;;;;;2.43;1.93;;;15.20;99.90;;;;;;5042912;28;20717;-71
2022/07/07 08:17:08;;;;;;;1.87;1.87;;;15.30;99.90;;;;;;5045477;28;20214;-71
2022/07/07 08:19:34;;;;;;;3.67;1.90;;;15.30;99.90;;;;;;5044944;28;20211;-71
2022/07/07 08:22:01;;;;;;;1.60;1.37;;;15.30;99.90;;;;;;5035969;28;20211;-71
2022/07/07 08:24:28;;;;;;;1.10;1.10;;;15.40;99.90;;;;;;5029994;28;20212;-71
2022/07/07 08:26:55;;;;;;;5.40;1.50;;;15.40;99.90;;;;;;5028929;28;20200;-71
2022/07/07 08:29:22;;;;;;;1.23;1.20;;;15.50;99.90;;;;;;5044791;28;20204;-71
2022/07/07 08:31:50;;;;;;;3.13;1.40;;;15.40;99.90;;;;;;5040020;28;20254;-71
2022/07/07 08:34:17;;;;;;;1.40;1.40;;;15.40;99.90;;;;;;5042672;28;20270;-71
2022/07/07 08:36:43;;;;;;;4.27;1.60;;;15.40;99.90;;;;;;5044842;28;20208;-71
2022/07/07 08:39:10;;;;;;;12.83;1.97;;;15.30;99.90;;;;;;5045429;28;20207;-71
2022/07/07 08:41:37;;;;;;;1.70;1.60;;;15.40;99.90;;;;;;5045460;28;20199;-71
2022/07/07 08:44:05;;;;;;;1.70;1.60;;;15.40;99.90;;;;;;5035615;28;20212;-71
2022/07/07 08:46:32;;;;;;;9.40;2.03;;;15.40;99.90;;;;;;5024752;28;20197;-71
2022/07/07 08:49:00;;;;;;;2.97;1.53;;;15.50;99.90;;;;;;5024901;28;20212;-71
2022/07/07 08:51:27;;;;;;;1.57;1.47;;;15.60;99.90;;;;;;5024360;28;20255;-71
2022/07/07 08:53:54;;;;;;;1.43;1.43;;;15.60;99.90;;;;;;5031960;28;20218;-71
2022/07/07 08:56:22;;;;;;;1.40;1.40;;;15.50;99.90;;;;;;5025246;28;20209;-71
2022/07/07 08:58:50;;;;;;;2.20;1.50;;;15.50;99.90;;;;;;5024890;28;20672;-71
2022/07/07 09:01:17;;;;;;;1.60;1.60;;;15.60;99.90;;;;;;5025104;28;20215;-71
2022/07/07 09:03:44;;;;;;;1.70;1.70;;;15.60;99.90;;;;;;5038405;28;20228;-71
2022/07/07 09:06:13;;;;;;;2.00;1.63;;;15.60;99.90;;;;;;5025784;28;20215;-71
2022/07/07 09:08:40;;;;;;;1.80;1.70;;;15.60;99.90;;;;;;5035706;28;20624;-71
2022/07/07 09:11:09;;;;;;;1.90;1.90;;;15.70;99.90;;;;;;5048517;28;20204;-71
2022/07/07 09:13:36;;;;;;;1.90;1.80;;;15.60;99.90;;;;;;5040744;28;20289;-71
2022/07/07 09:16:13;;;;;;;1.73;1.73;;;15.60;99.90;;;;;;5048705;28;20232;-71
2022/07/07 09:18:42;;;;;;;1.70;1.70;;;15.60;99.90;;;;;;5036037;28;20383;-71
2022/07/07 09:21:28;;;;;;;2.03;1.97;;;15.70;99.90;;;;;;5028446;28;20219;-71
2022/07/07 09:23:57;;;;;;;2.10;2.00;;;15.80;99.90;;;;;;5032722;28;20211;-70
2022/07/07 09:26:38;;;;;;;2.13;2.10;;;15.80;99.90;;;;;;5038185;28;20686;-71
2022/07/07 09:29:05;;;;;;;1.80;1.80;;;15.80;99.90;;;;;;5048300;28;20208;-71
2022/07/07 09:31:52;;;;;;;1.93;1.90;;;15.90;99.90;;;;;;5038968;28;20229;-71
2022/07/07 09:34:20;;;;;;;2.93;2.10;;;15.90;99.90;;;;;;5042296;28;20711;-71
2022/07/07 09:39:41;;;;;;;2.17;2.17;;;15.90;99.90;;;;;;5047821;28;20200;-71
2022/07/07 09:42:24;;;;;;;2.30;2.20;;;16.00;99.90;;;;;;5048205;28;20586;-71
2022/07/07 09:44:54;;;;;;;2.50;2.40;;;16.10;99.90;;;;;;5046755;28;20235;-71
2022/07/07 09:47:21;;;;;;;2.50;2.40;;;16.20;99.90;;;;;;5047423;28;20214;-70
2022/07/07 09:50:00;;;;;;;2.07;2.00;;;16.20;99.90;;;;;;5047212;28;20319;-70
2022/07/07 09:52:28;;;;;;;2.40;2.30;;;16.30;99.90;;;;;;5047473;28;20208;-70
2022/07/07 09:54:56;;;;;;;2.20;2.10;;;16.30;99.90;;;;;;5028679;28;20231;-70
2022/07/07 09:57:23;;;;;;;2.40;2.30;;;16.40;99.90;;;;;;5027620;28;20205;-70
2022/07/07 09:59:50;;;;;;;2.60;2.40;;;16.40;99.90;;;;;;5027728;28;20208;-70
2022/07/07 10:02:21;;;;;;;2.13;2.03;;;16.40;99.90;;;;;;5027747;28;20977;-70
2022/07/07 10:04:50;;;;;;;2.30;2.20;;;16.40;99.90;;;;;;5043365;28;20208;-72
2022/07/07 10:07:19;;;;;;;2.93;2.73;;;16.40;99.90;;;;;;5046664;28;20208;-71
2022/07/07 10:09:52;;;;;;;2.60;2.50;;;16.40;99.90;;;;;;5045406;28;20208;-71
2022/07/07 10:12:21;;;;;;;2.87;2.67;;;16.40;99.90;;;;;;5045241;28;20242;-71
2022/07/07 10:14:51;;;;;;;2.50;2.40;;;16.40;99.90;;;;;;5032080;28;20327;-71
2022/07/07 10:17:18;;;;;;;3.63;3.20;;;16.50;99.90;;;;;;5026340;28;20611;-71
2022/07/07 10:19:45;;;;;;;2.97;2.87;;;16.40;99.90;;;;;;5034016;28;20287;-71
2022/07/07 10:22:14;;;;;;;3.00;2.90;;;16.40;99.90;;;;;;5046632;28;20215;-71
2022/07/07 10:24:42;;;;;;;3.47;3.27;;;16.40;99.90;;;;;;5026702;28;20212;-71
2022/07/07 10:27:15;;;;;;;3.00;2.90;;;16.40;99.90;;;;;;5027000;28;20215;-71
2022/07/07 10:29:43;;;;;;;3.00;2.90;;;16.40;99.90;;;;;;5041686;28;20192;-71
2022/07/07 10:32:11;;;;;;;4.03;3.73;;;16.40;99.90;;;;;;5066568;28;20433;-71
2022/07/07 10:34:39;;;;;;;3.23;3.03;;;16.40;99.90;;;;;;5034722;28;20260;-71
2022/07/07 10:37:08;;;;;;;3.60;3.30;;;16.40;99.90;;;;;;5036029;28;20211;-71
2022/07/07 10:39:43;;;;;;;3.57;3.27;;;16.40;99.90;;;;;;5029179;28;20319;-71
2022/07/07 10:42:40;;;;;;;3.70;3.40;;;16.40;99.90;;;;;;5042420;28;20264;-71
2022/07/07 10:45:10;;;;;;;4.63;3.90;;;16.40;99.90;;;;;;5013303;28;20240;-71
2022/07/07 10:47:38;;;;;;;4.20;3.90;;;16.40;99.90;;;;;;5040915;28;20210;-71
2022/07/07 10:50:24;;;;;;;4.30;4.10;;;16.40;99.90;;;;;;5046594;28;20670;-71
2022/07/07 10:52:51;;;;;;;4.00;3.80;;;16.40;99.90;;;;;;5036521;28;20188;-71
2022/07/07 10:55:18;;;;;;;4.27;4.07;;;16.40;99.90;;;;;;5026693;28;20359;-71
2022/07/07 10:57:47;;;;;;;4.50;4.30;;;16.50;99.90;;;;;;5044426;28;20211;-71
2022/07/07 11:00:18;;;;;;;4.90;4.60;;;16.50;99.90;;;;;;5040592;28;20212;-71
2022/07/07 11:02:48;;;;;;;4.83;4.40;;;16.50;99.90;;;;;;5038969;28;20231;-71
2022/07/07 11:05:33;;;;;;;4.23;3.93;;;16.50;99.90;;;;;;5045217;28;20216;-71
2022/07/07 11:08:14;;;;;;;5.17;4.77;;;16.50;99.90;;;;;;5026055;28;21222;-71
2022/07/07 11:10:53;;;;;;;4.70;4.40;;;16.50;99.90;;;;;;5038502;28;20283;-71
2022/07/07 11:13:33;;;;;;;5.10;4.80;;;16.50;99.90;;;;;;5046217;28;20208;-71
2022/07/07 11:16:17;;;;;;;5.50;5.20;;;16.50;99.90;;;;;;5039192;28;20231;-81
2022/07/07 11:18:47;;;;;;;5.63;5.33;;;16.50;99.90;;;;;;5026047;28;20286;-72
2022/07/07 11:21:14;;;;;;;5.37;5.03;;;16.60;99.90;;;;;;5040561;28;20667;-72
2022/07/07 11:23:52;;;;;;;5.50;5.20;;;16.60;99.90;;;;;;5045992;28;20204;-71
2022/07/07 11:26:22;;;;;;;4.90;4.60;;;16.60;99.90;;;;;;5046024;28;20250;-72
2022/07/07 11:28:51;;;;;;;5.73;5.43;;;16.60;99.90;;;;;;5045631;28;20197;-72
2022/07/07 11:31:18;;;;;;;5.40;5.00;;;16.50;99.90;;;;;;5045995;28;20244;-71
2022/07/07 11:33:50;;;;;;;6.80;6.40;;;16.60;99.90;;;;;;5046750;28;20208;-71
2022/07/07 11:36:18;;;;;;;5.97;5.67;;;16.50;99.90;;;;;;5044871;28;20220;-72
2022/07/07 11:38:47;;;;;;;7.20;6.80;;;16.60;99.90;;;;;;5026680;28;20585;-77
2022/07/07 11:41:14;;;;;;;6.80;6.40;;;16.60;99.90;;;;;;5032221;28;20211;-72
2022/07/07 11:43:41;;;;;;;7.00;6.53;;;16.60;99.90;;;;;;5038461;28;21127;-73
2022/07/07 11:46:09;;;;;;;7.80;7.40;;;16.60;99.90;;;;;;5036291;28;20208;-72
2022/07/07 11:48:39;;;;;;;7.70;7.30;;;16.60;99.90;;;;;;5045552;28;20208;-72
2022/07/07 11:51:07;;;;;;;7.53;7.13;;;16.60;99.90;;;;;;5045249;28;20208;-72
2022/07/07 11:53:34;;;;;;;7.00;6.60;;;16.60;99.90;;;;;;5031132;28;20660;-72
2022/07/07 11:56:04;;;;;;;6.77;6.47;;;16.70;99.90;;;;;;5045597;28;20278;-72
2022/07/07 11:58:31;;;;;;;7.33;6.93;;;16.90;99.90;;;;;;5045435;28;20211;-73
2022/07/07 12:00:58;;;;;;;5.80;5.37;;;17.30;99.90;;;;;;5045509;28;20219;-72
2022/07/07 12:03:35;;;;;;;4.77;4.47;;;17.60;99.90;;;;;;5033054;28;20279;-72
2022/07/07 12:06:07;;;;;;;4.80;4.50;;;17.90;99.90;;;;;;5026179;28;20747;-72
2022/07/07 12:08:36;;;;;;;4.40;4.20;;;18.10;99.90;;;;;;5045339;28;20215;-72
2022/07/07 12:11:08;;;;;;;4.03;3.80;;;18.30;99.90;;;;;;5045425;28;20208;-72
2022/07/07 12:13:34;;;;;;;4.87;4.47;;;18.50;99.90;;;;;;5035307;28;20204;-72
2022/07/07 12:16:05;;;;;;;3.57;3.37;;;18.70;99.90;;;;;;5025319;28;20613;-73
2022/07/07 12:18:38;;;;;;;2.87;2.67;;;18.70;99.90;;;;;;5025680;28;20208;-71
2022/07/07 12:21:10;;;;;;;3.10;2.90;;;18.90;99.90;;;;;;5025254;28;20655;-71
2022/07/07 12:23:39;;;;;;;2.97;2.70;;;19.00;99.90;;;;;;5026810;28;20668;-71
2022/07/07 12:26:13;;;;;;;2.97;2.67;;;19.00;99.90;;;;;;5045647;28;20254;-70
2022/07/07 12:28:41;;;;;;;2.53;2.43;;;18.90;99.90;;;;;;5045344;28;20196;-71
2022/07/07 12:31:10;;;;;;;2.50;2.40;;;18.80;99.90;;;;;;5045222;28;20334;-71
2022/07/07 12:33:39;;;;;;;2.70;2.50;;;18.80;99.90;;;;;;5043411;28;20656;-70
2022/07/07 12:36:11;;;;;;;2.40;2.30;;;18.60;99.90;;;;;;5024912;28;20604;-70
2022/07/07 12:38:40;;;;;;;2.87;2.70;;;18.50;99.90;;;;;;5032029;28;20213;-70
2022/07/07 12:41:08;;;;;;;2.83;2.73;;;18.50;99.90;;;;;;5026014;28;20663;-70
2022/07/07 12:43:36;;;;;;;2.70;2.60;;;18.40;99.90;;;;;;5032920;28;20196;-71
2022/07/07 12:46:10;;;;;;;3.00;2.90;;;18.40;99.90;;;;;;5040820;28;20201;-70
2022/07/07 12:48:46;;;;;;;2.67;2.57;;;18.40;99.90;;;;;;5028727;28;20197;-71
2022/07/07 12:51:13;;;;;;;4.63;3.13;;;18.30;99.90;;;;;;5029013;28;20196;-71
2022/07/07 12:53:42;;;;;;;4.20;3.83;;;18.00;99.90;;;;;;5030333;28;20667;-71
2022/07/07 12:56:10;;;;;;;3.90;3.70;;;17.70;99.90;;;;;;5029548;28;20310;-70
2022/07/07 12:58:46;;;;;;;4.90;4.70;;;17.70;99.90;;;;;;5029009;28;20735;-70